Main page
METAR-TAF:

METAR-TAF

Airports :

Princeton Aerodrome

Princeton, British Columbia, Canada

latitude: 49-28N, longitude: 120-31W, elevation: 2296 ft

Current weather observation

The report was made 8 hours and 35 minutes ago, at 01:00 UTC
Wind 7 mph from the West/Northwest
Temperature 93°F
Humidity 19%
Pressure 29.91 in. Hg
Visibility: 25 miles
Scattered clouds at a height of 6100 ft, Cumulonimbus.
Scattered clouds at a height of 6800 ft, Towering cumulus.
Broken clouds at a height of 8100 ft, Towering cumulus.
Broken clouds at a height of 22000 ft
thunderstorm

METAR: CYDC 170100Z 29006KT 25SM TS SCT061CB SCT068TCU BKN081TCU BKN220 34/07 A2991 RMK CB4TCU1TCU2CI1 TCU TR FU/LAST STFD OBS/NEXT 17 1300Z SLP112 DENSITY ALT 5100FT

Time: 02:35 (09:35 UTC)


TAF: missing

Weather observations and forecasts of more than 4000 airports (METAR and TAF reports).

The available stations are represented by yellow and red dots on the map.

Hover mouse over dot to see the name of the station.

Then click to see weather observations and forecasts.

To change the map : click on the green buttons with a black cross to zoom in, on the green button with a dash to zoom out, or on the green arrows for adjacent maps.


METAR-TAF: